sábado, 9 de junio de 2012

Regreso un vuelo de AR por nieve en USU

Imagen ilustrativa Charlie Foxtrot


En la noche de hoy sabado 09 de junio el  AR1872 que realiza la ruta AEP-FTE-USH-AEP despego de Aeroparque a las 15:09hs aterrizo en Calafate a las 18:20hs, partio hacia Ushuaia a las 19:11hs volvio a nuestro aeropuerto a las 21:50hs, el motivo fue las condiciones meteorologicas, principalmente la nieve que redujo la visibilidad a unos 800 metros. El LV-BYY B737-700 permanece ahora en la plataforma comercial de Calafate esperando partir a Aeroparque las 23hs local. El AR1896 que realiza la ruta opuesta AEP-USH-FTE-AEP que despego de Bs. As. 12:20 aterrizando cerca de las 16hs, logro operar de forma normal antes que se cerrara el aeropuerto fueguino.

Aeropuerto USHUAIA
10 - 00:00 METAR SAWH 100000Z 23025G38KT 0100 SN BKN007 BKN015 M03/M04 Q9918 = fuente www.smn.gov.ar


Charlie Foxtrot

No hay comentarios.: